Time;durP1;ratioP1;P1;durP2;ratioP2;P2;SDS_P1;SDS_P2;PMS_P1;PMS_P2;Temp;Humidity;BMP_temperature;BMP_pressure;BME280_temperature;BME280_humidity;BME280_pressure;Samples;Min_cycle;Max_cycle;Signal;HPM_P1;HPM_P2
2022/05/14 00:01:07;;;;;;;5.50;1.63;;;;;;;10.07;100.00;98889.38;6248139;23;20069;-64
2022/05/14 00:03:51;;;;;;;6.45;1.50;;;;;;;10.05;100.00;98888.53;6237353;23;20054;-63
2022/05/14 00:06:36;;;;;;;7.28;1.70;;;;;;;10.04;100.00;98882.34;6248208;23;20038;-64
2022/05/14 00:09:20;;;;;;;5.72;1.85;;;;;;;10.12;100.00;98898.06;6235679;23;20556;-65
2022/05/14 00:15:08;;;;;;;10.23;2.00;;;;;;;10.08;100.00;98886.66;6228059;23;20058;-64
2022/05/14 00:17:54;;;;;;;3.97;1.75;;;;;;;10.04;100.00;98885.00;6239274;23;20069;-68
2022/05/14 00:20:39;;;;;;;6.32;1.75;;;;;;;10.08;100.00;98884.03;6252177;23;20031;-64
2022/05/14 00:23:23;;;;;;;9.02;1.50;;;;;;;10.02;100.00;98876.25;6216855;23;20077;-62
2022/05/14 00:26:07;;;;;;;4.43;1.77;;;;;;;9.99;100.00;98889.59;6219337;23;20035;-63
2022/05/14 00:28:52;;;;;;;4.22;1.98;;;;;;;9.97;100.00;98888.75;6252398;23;20027;-63
2022/05/14 00:31:37;;;;;;;5.70;1.98;;;;;;;9.93;100.00;98880.97;6207890;23;20081;-63
2022/05/14 00:34:21;;;;;;;6.07;1.95;;;;;;;9.92;100.00;98897.78;6251758;23;20034;-63
2022/05/14 00:37:06;;;;;;;6.45;1.50;;;;;;;9.91;100.00;98888.97;6216610;23;20354;-68
2022/05/14 00:39:50;;;;;;;7.32;1.55;;;;;;;9.86;100.00;98888.25;6218583;23;20470;-65
2022/05/14 00:42:34;;;;;;;5.18;1.60;;;;;;;9.85;100.00;98894.44;6226468;23;20354;-63
2022/05/14 00:45:19;;;;;;;4.97;1.52;;;;;;;9.88;100.00;98888.19;6241329;23;20478;-66
2022/05/14 00:48:06;;;;;;;5.40;1.80;;;;;;;9.89;100.00;98889.94;6218506;23;20367;-64
2022/05/14 00:50:57;;;;;;;4.85;1.40;;;;;;;9.94;100.00;98888.00;6197565;23;20564;-62
2022/05/14 00:53:46;;;;;;;7.20;1.67;;;;;;;9.75;100.00;98863.00;6241238;23;20466;-64
2022/05/14 00:56:42;;;;;;;5.88;1.90;;;;;;;9.94;100.00;98885.34;6216107;23;20075;-65
2022/05/14 00:59:28;;;;;;;5.82;1.63;;;;;;;9.96;100.00;98884.38;6251213;23;20047;-64
2022/05/14 01:02:13;;;;;;;4.78;1.58;;;;;;;9.94;100.00;98885.34;6251488;23;20034;-62
2022/05/14 01:04:58;;;;;;;10.75;1.70;;;;;;;9.94;100.00;98880.94;6216789;23;20070;-63
2022/05/14 01:07:46;;;;;;;4.82;1.85;;;;;;;9.96;100.00;98883.53;6219327;23;20031;-63
2022/05/14 01:10:39;;;;;;;4.57;1.60;;;;;;;9.98;100.00;98879.03;6228984;23;20090;-64
2022/05/14 01:13:25;;;;;;;5.37;1.40;;;;;;;9.83;100.00;98868.91;6217547;23;20035;-67
2022/05/14 01:16:11;;;;;;;3.97;1.40;;;;;;;9.74;100.00;98856.84;6207617;23;20254;-63
2022/05/14 01:18:56;;;;;;;3.78;1.60;;;;;;;9.87;100.00;98873.19;6216286;23;20027;-65
2022/05/14 01:22:03;;;;;;;7.63;1.75;;;;;;;9.93;100.00;98876.53;6251632;23;20082;-64
2022/05/14 01:28:10;;;;;;;4.75;1.73;;;;;;;9.83;100.00;98868.91;6227705;23;20519;-64
2022/05/14 01:30:58;;;;;;;6.97;2.08;;;;;;;9.86;100.00;98860.91;6173691;23;20410;-66
2022/05/14 01:33:42;;;;;;;2.90;1.50;;;;;;;9.84;100.00;98866.22;6193505;23;20035;-68
2022/05/14 01:36:27;;;;;;;7.97;1.90;;;;;;;9.73;100.00;98852.44;6248643;23;20095;-65
2022/05/14 01:39:12;;;;;;;6.30;1.70;;;;;;;9.84;100.00;98860.09;6246477;23;20062;-64
2022/05/14 01:41:58;;;;;;;6.70;1.55;;;;;;;9.84;100.00;98871.53;6249433;22;20074;-63
2022/05/14 01:44:43;;;;;;;4.38;1.60;;;;;;;9.82;100.00;98867.19;6204140;23;20520;-65
2022/05/14 01:47:28;;;;;;;6.13;2.15;;;;;;;9.79;100.00;98867.28;6225717;23;20093;-62
2022/05/14 01:50:16;;;;;;;7.43;1.73;;;;;;;9.86;100.00;98876.78;6247517;23;20027;-62
2022/05/14 01:53:00;;;;;;;7.03;1.80;;;;;;;9.55;100.00;98826.59;6246557;23;20081;-63
2022/05/14 01:55:46;;;;;;;5.47;1.60;;;;;;;9.62;100.00;98835.19;6248249;23;20077;-62
2022/05/14 01:58:36;;;;;;;7.18;2.85;;;;;;;9.74;100.00;98856.84;6191712;23;20101;-64
2022/05/14 02:01:30;;;;;;;7.72;2.42;;;;;;;9.84;100.00;98871.53;6197911;23;20039;-63
2022/05/14 02:04:16;;;;;;;8.20;2.10;;;;;;;9.88;100.00;98877.63;6228156;23;20143;-63
2022/05/14 02:07:01;;;;;;;6.50;2.20;;;;;;;9.91;100.00;98866.91;6225576;23;20051;-63
2022/05/14 02:09:45;;;;;;;7.82;2.30;;;;;;;9.93;100.00;98873.03;6248668;23;20290;-62
2022/05/14 02:12:29;;;;;;;7.40;1.90;;;;;;;10.02;100.00;98872.72;6248163;23;20114;-62
2022/05/14 02:15:14;;;;;;;5.38;1.80;;;;;;;10.02;100.00;98870.09;6251044;23;20130;-63
2022/05/14 02:17:59;;;;;;;4.95;1.52;;;;;;;10.07;100.00;98869.06;6239498;23;20031;-63
2022/05/14 02:20:45;;;;;;;5.80;1.85;;;;;;;10.09;100.00;98874.31;6240033;23;20512;-66
2022/05/14 02:23:30;;;;;;;5.30;1.45;;;;;;;10.13;100.00;98876.78;6217821;23;20108;-61
2022/05/14 02:26:15;;;;;;;8.63;1.90;;;;;;;10.16;100.00;98867.91;6204028;23;20043;-63
2022/05/14 02:29:00;;;;;;;3.75;1.70;;;;;;;10.10;100.00;98850.41;6217826;23;20516;-64
2022/05/14 02:31:45;;;;;;;6.68;1.52;;;;;;;10.15;100.00;98852.91;6238052;23;20392;-64
2022/05/14 02:34:30;;;;;;;4.15;1.42;;;;;;;10.31;100.00;98880.63;6246167;23;20035;-64
2022/05/14 02:37:17;;;;;;;7.95;1.42;;;;;;;10.37;100.00;98880.44;6192062;23;20031;-64
2022/05/14 02:40:05;;;;;;;8.00;1.42;;;;;;;10.41;100.00;98882.06;6192230;23;20366;-67
2022/05/14 02:42:49;;;;;;;4.50;1.38;;;;;;;10.45;100.00;98881.91;6248405;23;20031;-63
2022/05/14 02:45:34;;;;;;;9.13;1.58;;;;;;;10.51;100.00;98886.13;6246306;23;20027;-63
2022/05/14 02:48:19;;;;;;;6.03;1.52;;;;;;;10.53;100.00;98887.81;6250079;23;20400;-62
2022/05/14 02:51:05;;;;;;;5.55;1.48;;;;;;;10.51;100.00;98884.34;6240220;23;20030;-63
2022/05/14 02:53:50;;;;;;;9.18;1.55;;;;;;;10.56;100.00;98890.34;6217667;23;20035;-62
2022/05/14 02:56:34;;;;;;;7.40;1.42;;;;;;;10.50;100.00;98868.50;6224385;23;20127;-63
2022/05/14 02:59:19;;;;;;;2.92;1.48;;;;;;;10.64;100.00;98885.66;6214496;23;20078;-68
2022/05/14 03:02:04;;;;;;;2.55;1.10;;;;;;;10.59;100.00;98879.66;6227662;23;20061;-62
2022/05/14 03:04:51;;;;;;;5.18;1.55;;;;;;;10.70;100.00;98884.56;6193735;23;20046;-63
2022/05/14 03:07:35;;;;;;;4.53;1.40;;;;;;;10.81;100.00;98890.38;6250387;23;20115;-63
2022/05/14 03:10:20;;;;;;;5.65;1.60;;;;;;;10.81;100.00;98887.72;6240401;23;20030;-63
2022/05/14 03:13:05;;;;;;;5.18;1.52;;;;;;;10.88;100.00;98897.22;6217578;23;20157;-63
2022/05/14 03:15:50;;;;;;;4.88;1.58;;;;;;;10.89;100.00;98893.63;6217535;23;20127;-63
2022/05/14 03:18:34;;;;;;;4.63;1.40;;;;;;;10.75;100.00;98872.03;6247828;23;20027;-66
2022/05/14 03:21:19;;;;;;;3.60;1.20;;;;;;;10.85;100.00;98876.97;6227445;23;20493;-62
2022/05/14 03:24:05;;;;;;;12.05;1.77;;;;;;;10.93;100.00;98887.31;6193824;23;20103;-64
2022/05/14 03:26:50;;;;;;;3.97;1.25;;;;;;;10.97;100.00;98894.22;6227376;23;20481;-64
2022/05/14 03:29:35;;;;;;;5.03;1.27;;;;;;;11.01;100.00;98888.78;6249000;23;20552;-64
2022/05/14 03:32:21;;;;;;;4.72;1.38;;;;;;;11.02;100.00;98886.97;6248760;23;20306;-63
2022/05/14 03:35:08;;;;;;;6.15;1.45;;;;;;;11.02;100.00;98881.66;6227398;23;20493;-63
2022/05/14 03:37:52;;;;;;;3.15;1.42;;;;;;;11.10;100.00;98884.91;6193435;23;20358;-61
2022/05/14 03:40:37;;;;;;;5.78;1.67;;;;;;;11.19;100.00;98900.50;6240165;22;20402;-64
2022/05/14 03:43:22;;;;;;;5.68;1.27;;;;;;;11.26;100.00;98905.53;6249015;23;20034;-63
2022/05/14 03:46:07;;;;;;;;;;;;;;;11.34;100.00;98898.16;6228755;23;20413;-64
2022/05/14 03:48:52;;;;;;;5.78;1.40;;;;;;;11.31;100.00;98897.41;6227543;23;20005;-61
2022/05/14 03:51:37;;;;;;;4.35;1.20;;;;;;;11.32;100.00;98901.78;6239299;23;20078;-67
2022/05/14 03:54:21;;;;;;;7.22;1.45;;;;;;;11.36;100.00;98887.47;6248996;23;20034;-63
2022/05/14 03:57:09;;;;;;;4.95;1.45;;;;;;;11.58;100.00;98907.84;6247976;23;20366;-65
2022/05/14 03:59:53;;;;;;;5.05;1.40;;;;;;;11.62;100.00;98890.03;6205964;23;20074;-65
2022/05/14 04:02:38;;;;;;;4.85;1.13;;;;;;;11.64;100.00;98904.13;6205454;23;20027;-65
2022/05/14 04:05:23;;;;;;;3.58;1.33;;;;;;;11.70;100.00;98895.91;6227943;23;20085;-66
2022/05/14 04:08:07;;;;;;;4.57;1.20;;;;;;;11.83;100.00;98903.34;6228478;23;20027;-67
2022/05/14 04:10:52;;;;;;;4.82;1.10;;;;;;;11.82;100.00;98896.31;6226901;23;20086;-65
2022/05/14 04:13:37;;;;;;;4.85;2.35;;;;;;;11.83;100.00;98884.75;6250259;23;20031;-65
2022/05/14 04:16:23;;;;;;;5.13;1.60;;;;;;;11.97;100.00;98902.81;6216341;23;20031;-64
2022/05/14 04:19:08;;;;;;;4.88;1.17;;;;;;;12.12;100.00;98902.22;6218831;23;20066;-64
2022/05/14 04:21:52;;;;;;;3.42;1.45;;;;;;;12.14;100.00;98885.28;6249101;23;20034;-65
2022/05/14 04:24:37;;;;;;;7.30;1.88;;;;;;;12.22;100.00;98895.63;6248393;23;20091;-65
2022/05/14 04:27:22;;;;;;;5.32;2.13;;;;;;;12.22;100.00;98885.84;6247526;23;20031;-66
2022/05/14 04:30:08;;;;;;;3.47;1.15;;;;;;;12.25;100.00;98888.38;6173659;23;20086;-66
2022/05/14 04:32:53;;;;;;;4.90;1.35;;;;;;;12.20;100.00;98870.88;6204928;23;20516;-65
2022/05/14 04:35:39;;;;;;;10.18;2.13;;;;;;;12.31;100.00;98898.75;6213779;23;20385;-72
2022/05/14 04:38:24;;;;;;;4.03;1.95;;;;;;;12.32;100.00;98892.53;6216130;23;20030;-66
2022/05/14 04:41:09;;;;;;;4.40;1.17;;;;;;;12.43;100.00;98892.94;6196063;23;20079;-69
2022/05/14 04:43:54;;;;;;;1.55;0.82;;;;;;;12.55;100.00;98892.41;6228533;23;20123;-67
2022/05/14 04:46:38;;;;;;;3.72;1.55;;;;;;;12.62;100.00;98893.06;6228759;23;20031;-66
2022/05/14 04:49:23;;;;;;;2.53;1.20;;;;;;;12.65;100.00;98890.25;6196317;23;20070;-68
2022/05/14 04:52:09;;;;;;;3.53;0.88;;;;;;;12.75;100.00;98888.94;6197305;23;20031;-66
2022/05/14 04:54:53;;;;;;;2.15;0.80;;;;;;;12.95;100.00;98891.59;6249031;23;20520;-65
2022/05/14 04:57:40;;;;;;;3.83;1.20;;;;;;;12.74;100.00;98850.81;6228589;23;20415;-66
2022/05/14 05:00:27;;;;;;;2.80;0.95;;;;;;;13.00;100.00;98894.94;6228778;23;20027;-64
2022/05/14 05:03:21;;;;;;;3.75;1.33;;;;;;;13.04;100.00;98885.91;6251461;23;20111;-65
2022/05/14 05:06:14;;;;;;;3.25;0.90;;;;;;;13.09;100.00;98900.75;6228566;23;20028;-65
2022/05/14 05:09:01;;;;;;;3.38;1.00;;;;;;;13.14;100.00;98900.56;6251390;23;20045;-65
2022/05/14 05:11:46;;;;;;;1.60;0.80;;;;;;;12.99;100.00;98854.19;6251335;23;20031;-65
2022/05/14 05:14:30;;;;;;;4.75;1.23;;;;;;;13.18;100.00;98879.03;6251390;23;20047;-65
2022/05/14 05:17:15;;;;;;;3.33;0.93;;;;;;;13.30;100.00;98885.63;6215907;23;20027;-72
2022/05/14 05:19:59;;;;;;;5.65;0.80;;;;;;;13.27;100.00;98886.63;6241234;23;20069;-66
2022/05/14 05:22:43;;;;;;;1.70;0.73;;;;;;;13.29;100.00;98887.41;6215675;23;20089;-67
2022/05/14 05:25:28;;;;;;;3.55;0.82;;;;;;;13.35;100.00;98884.50;6207000;23;20104;-66
2022/05/14 05:28:13;;;;;;;;;;;;;;;13.44;100.00;98886.72;6241963;23;20031;-66
2022/05/14 05:30:57;;;;;;;4.03;0.93;;;;;;;13.52;100.00;98873.94;6228791;23;19921;-65
2022/05/14 05:33:42;;;;;;;2.53;0.90;;;;;;;13.59;100.00;98879.84;6197448;23;20035;-66
2022/05/14 05:36:26;;;;;;;3.47;0.73;;;;;;;13.56;100.00;98874.63;6239366;23;20477;-71
2022/05/14 05:39:11;;;;;;;6.35;1.08;;;;;;;13.66;100.00;98874.13;6228207;23;20090;-67
2022/05/14 05:41:58;;;;;;;2.70;0.93;;;;;;;13.81;100.00;98888.56;6225520;23;20402;-66
2022/05/14 05:44:43;;;;;;;8.30;1.23;;;;;;;13.82;100.00;98882.28;6227937;23;20074;-66
2022/05/14 05:47:27;;;;;;;1.80;0.80;;;;;;;13.81;100.00;98870.75;6228367;23;20031;-65
2022/05/14 05:50:13;;;;;;;3.03;0.95;;;;;;;13.84;100.00;98897.28;6251847;23;20027;-66
2022/05/14 05:52:57;;;;;;;2.05;0.70;;;;;;;13.81;100.00;98875.25;6197493;23;20027;-68
2022/05/14 05:58:45;;;;;;;1.42;0.77;;;;;;;13.98;100.00;98860.16;6200374;23;20031;-66
2022/05/14 06:01:30;;;;;;;0.60;0.40;;;;;;;13.96;100.00;98869.16;6240609;23;20350;-65
2022/05/14 06:04:14;;;;;;;1.92;0.60;;;;;;;14.01;100.00;98877.81;6204650;23;20027;-69
2022/05/14 06:06:59;;;;;;;3.33;0.63;;;;;;;13.98;100.00;98887.75;6228048;23;20074;-66
2022/05/14 06:09:43;;;;;;;2.80;0.73;;;;;;;14.10;100.00;98872.03;6225557;23;20027;-65
2022/05/14 06:12:28;;;;;;;3.53;0.55;;;;;;;14.13;100.00;98873.69;6250540;23;20102;-66
2022/05/14 06:15:16;;;;;;;2.00;0.60;;;;;;;14.15;100.00;98882.50;6249655;23;20222;-68
2022/05/14 06:18:01;;;;;;;2.08;0.60;;;;;;;14.27;100.00;98877.44;6227596;23;20094;-65
2022/05/14 06:20:46;;;;;;;2.03;0.63;;;;;;;14.28;100.00;98860.50;6217600;23;20035;-66
2022/05/14 06:23:30;;;;;;;2.33;0.70;;;;;;;14.42;100.00;98858.03;6194489;23;20063;-70
2022/05/14 06:26:14;;;;;;;2.85;0.52;;;;;;;14.52;100.00;98848.59;6227613;23;20366;-65
2022/05/14 06:28:59;;;;;;;1.67;0.60;;;;;;;14.57;100.00;98864.41;6248212;23;20481;-67
2022/05/14 06:31:44;;;;;;;6.65;1.23;;;;;;;14.64;100.00;98858.66;6250553;23;20370;-66
2022/05/14 06:34:28;;;;;;;1.67;0.38;;;;;;;14.61;100.00;98856.16;6195808;23;20081;-65
2022/05/14 06:37:13;;;;;;;2.00;0.60;;;;;;;14.50;100.00;98846.97;6175004;23;20027;-66
2022/05/14 06:39:57;;;;;;;2.25;0.60;;;;;;;14.57;100.00;98861.72;6250256;23;20102;-65
2022/05/14 06:42:42;;;;;;;2.22;0.52;;;;;;;14.66;100.00;98862.13;6226437;23;20035;-68
2022/05/14 06:45:27;;;;;;;1.15;0.30;;;;;;;14.76;100.00;98859.84;6195946;23;20058;-66
2022/05/14 06:48:13;;;;;;;2.50;0.50;;;;;;;14.71;100.00;98867.25;6214168;23;20101;-65
2022/05/14 06:51:05;;;;;;;2.55;0.55;;;;;;;14.81;100.00;98861.34;6217200;23;20113;-66
2022/05/14 06:53:52;;;;;;;2.97;0.50;;;;;;;15.03;100.00;98856.63;6227405;23;20082;-66
2022/05/14 06:56:41;;;;;;;2.75;0.40;;;;;;;15.32;100.00;98852.41;6249060;23;20028;-69
2022/05/14 06:59:27;;;;;;;3.90;0.50;;;;;;;15.44;100.00;98847.31;6250188;23;20056;-66
2022/05/14 07:02:13;;;;;;;1.63;0.50;;;;;;;15.73;100.00;98851.94;6203867;23;20027;-66
2022/05/14 07:08:03;;;;;;;1.70;0.68;;;;;;;16.09;100.00;98847.19;6249681;23;20417;-65
2022/05/14 07:10:47;;;;;;;4.25;0.55;;;;;;;15.87;100.00;98830.63;6215655;23;20496;-66
2022/05/14 07:13:32;;;;;;;1.05;0.40;;;;;;;16.21;100.00;98854.50;6249771;23;20401;-66
2022/05/14 07:16:16;;;;;;;2.08;0.47;;;;;;;16.86;99.10;98854.22;6226947;23;20027;-67
2022/05/14 07:19:01;;;;;;;1.02;0.40;;;;;;;17.17;96.04;98854.09;6217070;23;20026;-66
2022/05/14 07:21:47;;;;;;;3.15;0.60;;;;;;;17.61;93.92;98871.00;6216942;23;20370;-64
2022/05/14 07:24:32;;;;;;;1.67;0.70;;;;;;;18.01;90.76;98862.16;6247192;23;20051;-68
2022/05/14 07:27:16;;;;;;;;;;;;;;;18.24;88.48;98867.88;6250157;23;20094;-65
2022/05/14 07:30:02;;;;;;;1.70;0.30;;;;;;;18.13;87.42;98846.25;6226127;23;20408;-65
2022/05/14 07:32:48;;;;;;;1.60;0.55;;;;;;;18.37;84.71;98825.88;6239858;23;20026;-64
2022/05/14 07:35:33;;;;;;;;;;;;;;;18.27;88.17;98860.47;6250381;23;20043;-65
2022/05/14 07:38:18;;;;;;;4.13;0.57;;;;;;;18.33;84.17;98843.09;6249050;23;19919;-73
2022/05/14 07:41:04;;;;;;;5.13;0.93;;;;;;;18.57;85.27;98845.06;6249834;22;20031;-63
2022/05/14 07:43:53;;;;;;;3.30;0.45;;;;;;;18.88;81.21;98833.13;6214393;23;20048;-64
2022/05/14 07:46:38;;;;;;;1.25;0.50;;;;;;;19.27;75.27;98843.84;6216906;23;20046;-64
2022/05/14 07:49:24;;;;;;;1.25;0.60;;;;;;;19.22;70.77;98849.50;6250887;23;20027;-64
2022/05/14 07:52:11;;;;;;;2.15;0.57;;;;;;;19.93;71.63;98822.91;6251954;23;20031;-72
2022/05/14 07:54:56;;;;;;;3.63;0.82;;;;;;;20.85;70.58;98843.78;6218875;23;20031;-65
2022/05/14 07:57:41;;;;;;;2.42;0.80;;;;;;;20.63;63.76;98830.19;6195543;23;20372;-69
2022/05/14 08:00:26;;;;;;;1.52;0.52;;;;;;;21.33;59.54;98840.84;6197234;23;20128;-66
2022/05/14 08:03:11;;;;;;;3.47;0.55;;;;;;;19.66;67.54;98833.81;6205555;23;20027;-65
2022/05/14 08:05:56;;;;;;;2.17;0.50;;;;;;;18.79;73.27;98828.38;6197579;23;20094;-64
2022/05/14 08:08:41;;;;;;;1.38;0.70;;;;;;;19.34;71.15;98824.47;6241399;23;20469;-63
2022/05/14 08:11:27;;;;;;;4.07;0.90;;;;;;;20.25;68.67;98832.22;6250980;23;20034;-69
2022/05/14 08:14:11;;;;;;;;;;;;;;;21.44;60.71;98831.97;6252079;23;20035;-64
2022/05/14 08:16:56;;;;;;;4.88;0.80;;;;;;;20.54;59.99;98818.31;6216470;23;19965;-65
2022/05/14 08:19:41;;;;;;;7.35;1.35;;;;;;;20.85;56.42;98827.59;6218568;23;20055;-64
2022/05/14 08:25:32;;;;;;;4.78;1.40;;;;;;;19.66;61.03;98831.13;6226447;23;20364;-66
2022/05/14 08:28:17;;;;;;;1.90;0.85;;;;;;;19.74;63.07;98827.91;6251323;23;20098;-64
2022/05/14 08:31:02;;;;;;;2.58;0.60;;;;;;;20.51;57.60;98823.03;6227807;23;20027;-68
2022/05/14 08:33:46;;;;;;;2.78;0.70;;;;;;;20.87;55.03;98815.72;6220752;23;20035;-63
2022/05/14 08:36:30;;;;;;;3.58;1.00;;;;;;;21.08;54.07;98822.19;6251344;23;20085;-63
2022/05/14 08:39:16;;;;;;;1.15;0.68;;;;;;;20.64;52.94;98810.34;6250427;23;20343;-65
2022/05/14 08:42:01;;;;;;;2.80;0.50;;;;;;;19.60;59.79;98801.13;6218259;23;20031;-65
2022/05/14 08:44:47;;;;;;;3.67;0.90;;;;;;;19.18;64.72;98813.03;6215714;23;20026;-65
2022/05/14 08:47:37;;;;;;;4.65;1.05;;;;;;;19.20;65.86;98829.06;6218186;23;20047;-63
2022/05/14 08:50:29;;;;;;;2.53;0.90;;;;;;;18.90;67.93;98789.06;6206882;23;20030;-66
2022/05/14 08:53:22;;;;;;;2.53;1.00;;;;;;;20.17;65.17;98829.22;6226166;23;20030;-64
2022/05/14 08:56:26;;;;;;;3.25;0.70;;;;;;;22.59;55.03;98831.53;6217923;23;20031;-65
2022/05/14 08:59:28;;;;;;;3.63;0.50;;;;;;;21.52;52.28;98808.78;6227569;23;20078;-65
2022/05/14 09:02:23;;;;;;;2.75;0.65;;;;;;;20.30;56.31;98813.88;6218329;23;20027;-65
2022/05/14 09:05:20;;;;;;;;;;;;;;;19.16;64.98;98817.69;6215994;23;20026;-65
2022/05/14 09:08:06;;;;;;;3.55;0.90;;;;;;;18.36;67.57;98816.09;6250266;23;20274;-70
2022/05/14 09:11:05;;;;;;;3.67;0.70;;;;;;;17.97;70.96;98827.59;6240901;23;20043;-65
2022/05/14 09:13:56;;;;;;;3.05;1.40;;;;;;;17.73;75.19;98819.28;6228306;23;20461;-65
2022/05/14 09:16:41;;;;;;;2.63;1.25;;;;;;;17.55;74.82;98825.84;6195598;23;20031;-70
2022/05/14 09:19:36;;;;;;;5.28;0.80;;;;;;;17.42;71.38;98818.66;6250728;23;20063;-64
2022/05/14 09:22:35;;;;;;;4.18;0.90;;;;;;;17.58;73.27;98833.69;6227399;23;20074;-64
2022/05/14 09:25:20;;;;;;;2.40;0.75;;;;;;;17.49;72.31;98825.38;6173270;23;20031;-66
2022/05/14 09:28:10;;;;;;;;;;;;;;;17.59;73.51;98827.38;6228621;23;20030;-65
2022/05/14 09:30:58;;;;;;;3.53;0.80;;;;;;;18.34;69.34;98824.25;6250484;23;19918;-65
2022/05/14 09:33:44;;;;;;;3.38;0.60;;;;;;;17.90;67.23;98820.91;6250602;23;20109;-65
2022/05/14 09:36:30;;;;;;;4.93;0.70;;;;;;;17.71;70.40;98826.59;6240494;23;20043;-64
2022/05/14 09:39:18;;;;;;;1.85;0.60;;;;;;;17.69;72.02;98822.28;6248325;23;20519;-63
2022/05/14 09:42:04;;;;;;;3.85;0.60;;;;;;;17.55;73.20;98801.72;6217386;23;20079;-63
2022/05/14 09:44:52;;;;;;;4.55;0.90;;;;;;;17.41;73.77;98801.72;6250036;23;20573;-65
2022/05/14 09:47:36;;;;;;;4.70;0.88;;;;;;;17.51;78.87;98816.28;6196243;23;20429;-65
2022/05/14 09:50:33;;;;;;;6.43;1.10;;;;;;;17.69;80.83;98800.84;6217701;23;20030;-64
2022/05/14 09:53:47;;;;;;;2.50;1.05;;;;;;;18.66;73.42;98804.16;6239061;23;20031;-64
2022/05/14 09:56:58;;;;;;;2.55;0.70;;;;;;;20.54;62.99;98795.88;6097918;23;20121;-64
2022/05/14 10:00:07;;;;;;;2.58;0.75;;;;;;;22.77;49.90;98820.00;6098232;23;20150;-63
2022/05/14 10:03:19;;;;;;;2.63;0.88;;;;;;;23.71;43.83;98805.44;6067902;23;20037;-65
2022/05/14 10:06:17;;;;;;;1.30;0.80;;;;;;;24.73;44.00;98817.72;6096201;23;20118;-64
2022/05/14 10:09:22;;;;;;;3.03;0.70;;;;;;;24.30;41.16;98805.53;6098377;23;20337;-74
2022/05/14 10:12:15;;;;;;;;;;;;;;;24.45;44.35;98788.69;6098582;23;20044;-63
2022/05/14 10:15:15;;;;;;;2.97;0.80;;;;;;;25.01;40.96;98811.47;6078786;23;19919;-63
2022/05/14 10:18:20;;;;;;;4.80;0.85;;;;;;;24.90;36.98;98762.78;6089712;23;20029;-63
2022/05/14 10:21:17;;;;;;;2.05;0.60;;;;;;;24.73;38.70;98801.47;6097444;23;20813;-65
2022/05/14 10:27:13;;;;;;;6.28;1.20;;;;;;;25.55;42.94;98789.09;6068629;23;20033;-64
2022/05/14 10:30:22;;;;;;;3.72;1.00;;;;;;;26.01;44.86;98824.41;6089042;23;20158;-65
2022/05/14 10:33:17;;;;;;;1.73;0.80;;;;;;;25.01;49.28;98824.16;6202252;23;20050;-65
2022/05/14 10:36:27;;;;;;;2.83;0.60;;;;;;;24.59;48.29;98809.13;6225267;23;20075;-64
2022/05/14 10:39:32;;;;;;;2.33;0.77;;;;;;;24.09;55.36;98808.31;6238023;23;20035;-64
2022/05/14 10:42:40;;;;;;;3.25;0.80;;;;;;;24.19;51.89;98808.34;6238458;22;20027;-72
2022/05/14 10:45:30;;;;;;;5.63;1.10;;;;;;;24.99;46.65;98808.03;6216219;23;20073;-72
2022/05/14 10:48:27;;;;;;;5.70;1.10;;;;;;;24.69;48.79;98804.63;6248571;23;20031;-64
2022/05/14 10:51:19;;;;;;;2.30;0.80;;;;;;;23.92;50.23;98789.16;6195539;23;20413;-65
2022/05/14 10:54:04;;;;;;;5.20;0.90;;;;;;;23.04;52.22;98795.19;6247351;23;20085;-66
2022/05/14 10:57:03;;;;;;;3.10;0.90;;;;;;;22.57;57.53;98804.63;6240145;23;20023;-65
2022/05/14 11:00:18;;;;;;;3.28;0.80;;;;;;;21.16;60.27;98821.63;6227136;23;20370;-65
2022/05/14 11:03:32;;;;;;;2.63;0.73;;;;;;;19.78;64.02;98791.75;6206645;23;20043;-66
2022/05/14 11:06:31;;;;;;;4.65;0.80;;;;;;;18.93;70.82;98817.53;6195645;23;20027;-66
2022/05/14 11:09:18;;;;;;;2.25;0.88;;;;;;;18.90;65.79;98801.66;6249297;23;20027;-65
2022/05/14 11:12:30;;;;;;;3.60;0.80;;;;;;;19.56;61.80;98808.56;6248477;23;20254;-65
2022/05/14 11:15:29;;;;;;;8.13;0.95;;;;;;;19.93;61.80;98802.22;6238875;23;20078;-66
2022/05/14 11:18:17;;;;;;;4.18;0.95;;;;;;;19.70;63.88;98786.91;6250082;23;20031;-66
2022/05/14 11:21:05;;;;;;;4.70;0.95;;;;;;;19.35;67.48;98791.28;6248712;23;20027;-64
2022/05/14 11:23:58;;;;;;;2.58;1.10;;;;;;;19.32;67.04;98791.47;6219242;23;20492;-65
2022/05/14 11:26:52;;;;;;;7.15;1.10;;;;;;;19.75;68.59;98789.25;6252214;23;20058;-64
2022/05/14 11:29:56;;;;;;;4.53;1.33;;;;;;;20.96;64.23;98779.13;6197894;23;20027;-65
2022/05/14 11:32:51;;;;;;;5.05;1.30;;;;;;;21.49;60.46;98776.63;6226588;23;20031;-65
2022/05/14 11:35:38;;;;;;;;;;;;;;;21.40;61.44;98782.75;6229550;23;20031;-66
2022/05/14 11:38:26;;;;;;;2.80;1.13;;;;;;;20.81;64.94;98774.94;6228930;23;19918;-64
2022/05/14 11:41:32;;;;;;;4.18;0.90;;;;;;;20.11;67.00;98765.94;6216388;23;20081;-66
2022/05/14 11:44:38;;;;;;;5.38;1.30;;;;;;;19.60;73.81;98775.09;6239220;23;20524;-70
2022/05/14 11:47:32;;;;;;;5.05;1.10;;;;;;;19.75;74.65;98771.31;6218785;23;20482;-68
2022/05/14 11:50:24;;;;;;;2.57;1.10;;;;;;;19.29;74.78;98751.38;6216302;23;20030;-65
2022/05/14 11:53:33;;;;;;;4.35;1.00;;;;;;;19.21;76.51;98768.97;6197968;23;20422;-64
2022/05/14 11:56:42;;;;;;;3.33;1.05;;;;;;;19.20;76.07;98759.19;6251383;23;20820;-64
2022/05/14 11:59:52;;;;;;;4.20;1.13;;;;;;;19.01;74.39;98764.13;6247397;23;20112;-66
2022/05/14 12:02:42;;;;;;;4.28;0.80;;;;;;;18.69;73.82;98778.94;6248837;23;20031;-66
2022/05/14 12:05:52;;;;;;;7.10;1.77;;;;;;;18.68;77.12;98777.22;6251511;23;20070;-64
2022/05/14 12:08:40;;;;;;;5.63;1.70;;;;;;;18.60;76.64;98775.06;6218704;23;20031;-64
2022/05/14 12:11:44;;;;;;;5.88;1.23;;;;;;;18.86;73.16;98768.75;6228621;23;20031;-64
2022/05/14 12:14:33;;;;;;;4.72;1.50;;;;;;;19.38;71.11;98742.63;6218256;23;20256;-64
2022/05/14 12:17:21;;;;;;;3.90;1.10;;;;;;;20.03;67.74;98760.22;6228600;23;20077;-66
2022/05/14 12:20:06;;;;;;;7.35;3.38;;;;;;;19.82;66.92;98753.72;6197467;23;20391;-76
2022/05/14 12:22:56;;;;;;;;;;;;;;;19.61;66.81;98749.91;6216382;23;20081;-64
2022/05/14 12:25:49;;;;;;;3.22;1.20;;;;;;;19.81;66.79;98753.81;6241080;23;19949;-64
2022/05/14 12:28:35;;;;;;;4.38;1.20;;;;;;;19.53;64.20;98741.53;6218765;23;20522;-63
2022/05/14 12:34:36;;;;;;;4.20;1.70;;;;;;;19.37;64.38;98751.69;6220113;23;20035;-70
2022/05/14 12:37:41;;;;;;;4.43;1.30;;;;;;;18.99;65.83;98744.59;6251790;23;20081;-72
2022/05/14 12:40:33;;;;;;;1.90;1.30;;;;;;;18.56;70.42;98748.50;6197271;22;20101;-65
2022/05/14 12:43:18;;;;;;;3.80;0.82;;;;;;;18.25;67.68;98743.47;6227035;23;20405;-65
2022/05/14 12:46:07;;;;;;;4.20;0.85;;;;;;;18.07;69.50;98745.53;6251352;23;20055;-64
2022/05/14 12:48:55;;;;;;;4.00;1.40;;;;;;;17.88;71.32;98739.66;6218482;23;20058;-65
2022/05/14 12:51:48;;;;;;;3.50;1.48;;;;;;;17.93;72.52;98743.78;6216521;23;20082;-68
2022/05/14 12:54:35;;;;;;;1.88;1.20;;;;;;;18.11;73.17;98765.84;6218182;23;20031;-65
2022/05/14 12:57:22;;;;;;;4.03;1.33;;;;;;;18.07;71.78;98760.81;6241101;23;20094;-64
2022/05/14 13:00:08;;;;;;;4.82;1.10;;;;;;;18.08;71.33;98754.47;6217674;23;20026;-72
2022/05/14 13:02:58;;;;;;;4.40;1.00;;;;;;;18.06;67.96;98754.56;6251185;23;20069;-67
2022/05/14 13:05:50;;;;;;;4.55;1.20;;;;;;;18.02;70.31;98751.22;6216484;23;20472;-64
2022/05/14 13:08:43;;;;;;;2.75;1.10;;;;;;;17.92;69.26;98755.47;6227773;23;20525;-63
2022/05/14 13:11:30;;;;;;;3.28;1.10;;;;;;;17.75;69.28;98766.44;6218097;23;20042;-64
2022/05/14 13:14:28;;;;;;;4.30;1.15;;;;;;;17.65;70.96;98762.63;6215338;23;20030;-63
2022/05/14 13:17:12;;;;;;;2.10;1.20;;;;;;;17.64;72.52;98752.88;6250548;23;20126;-65
2022/05/14 13:19:59;;;;;;;7.63;1.20;;;;;;;17.66;74.29;98764.38;6175631;23;20533;-64
2022/05/14 13:22:45;;;;;;;3.53;1.63;;;;;;;17.53;75.33;98762.56;6248503;23;20074;-63
2022/05/14 13:25:36;;;;;;;4.72;1.50;;;;;;;17.51;76.18;98762.66;6217926;23;20358;-64
2022/05/14 13:28:31;;;;;;;7.20;1.52;;;;;;;17.59;79.56;98759.47;6250845;23;20109;-64
2022/05/14 13:31:26;;;;;;;4.53;0.90;;;;;;;17.52;77.45;98750.09;6247333;23;20039;-64
2022/05/14 13:37:34;;;;;;;5.82;1.58;;;;;;;17.60;79.09;98758.50;6250989;23;20046;-63